createdAt,value
2018-05-11T00:00:35.912Z,76.77
2018-05-11T00:03:03.442Z,76.43
2018-05-11T00:05:30.923Z,76.62
2018-05-11T00:07:58.545Z,77.14
2018-05-11T00:10:26.046Z,76.86
2018-05-11T00:12:53.567Z,76.56
2018-05-11T00:15:21.113Z,76.36
2018-05-11T00:17:48.674Z,76.36
2018-05-11T00:20:16.199Z,76.36
2018-05-11T00:22:43.757Z,76.18
2018-05-11T00:25:11.401Z,76.79
2018-05-11T00:27:40.694Z,77.05
2018-05-11T00:30:08.281Z,77.02
2018-05-11T00:32:35.807Z,77.26
2018-05-11T00:35:05.596Z,77.23
2018-05-11T00:37:34.011Z,77.02
2018-05-11T00:40:01.690Z,77.57
2018-05-11T00:42:29.273Z,77.09
2018-05-11T00:44:58.543Z,77.60
2018-05-11T00:47:26.118Z,78.21
2018-05-11T00:49:53.678Z,78.72
2018-05-11T00:52:21.210Z,78.79
2018-05-11T00:54:48.728Z,78.88
2018-05-11T00:57:19.145Z,78.97
2018-05-11T00:59:46.695Z,79.18
2018-05-11T01:02:14.332Z,78.48
2018-05-11T01:04:41.874Z,78.63
2018-05-11T01:07:09.484Z,78.67
2018-05-11T01:09:37.050Z,77.64
2018-05-11T01:12:04.712Z,77.72
2018-05-11T01:14:33.917Z,77.46
2018-05-11T01:17:01.555Z,77.96
2018-05-11T01:19:29.041Z,77.70
2018-05-11T01:21:56.601Z,77.91
2018-05-11T01:24:24.215Z,78.10
2018-05-11T01:26:51.776Z,77.87
2018-05-11T01:29:19.408Z,78.06
2018-05-11T01:31:46.943Z,78.23
2018-05-11T01:34:14.528Z,77.64
2018-05-11T01:36:42.307Z,77.80
2018-05-11T01:39:09.825Z,77.39
2018-05-11T01:41:37.427Z,78.02
2018-05-11T01:44:05.697Z,78.18
2018-05-11T01:46:33.268Z,77.85
2018-05-11T01:49:00.802Z,77.94
2018-05-11T01:51:28.335Z,78.58
2018-05-11T01:53:55.850Z,77.72
2018-05-11T01:56:25.267Z,77.98
2018-05-11T01:58:52.798Z,78.35
2018-05-11T02:01:20.333Z,78.50
2018-05-11T02:03:47.916Z,78.69
2018-05-11T02:06:15.501Z,78.67
2018-05-11T02:08:43.068Z,78.44
2018-05-11T02:11:10.592Z,78.40
2018-05-11T02:13:38.218Z,78.88
2018-05-11T02:16:05.755Z,78.73
2018-05-11T02:18:33.422Z,78.71
2018-05-11T02:21:00.870Z,79.03
2018-05-11T02:23:28.467Z,78.68
2018-05-11T02:25:56.117Z,79.14
2018-05-11T02:28:23.711Z,79.33
2018-05-11T02:30:51.326Z,78.92
2018-05-11T02:33:20.261Z,79.03
2018-05-11T02:35:47.928Z,79.16
2018-05-11T02:38:15.449Z,79.79
2018-05-11T02:40:42.978Z,79.79
2018-05-11T02:43:10.522Z,79.60
2018-05-11T02:45:38.087Z,80.07
2018-05-11T02:48:05.610Z,80.38
2018-05-11T02:50:33.160Z,80.35
2018-05-11T02:53:01.076Z,80.14
2018-05-11T02:55:28.605Z,80.13
2018-05-11T02:57:56.162Z,80.35
2018-05-11T03:00:23.769Z,79.98
2018-05-11T03:02:51.426Z,80.43
2018-05-11T03:05:18.971Z,80.38
2018-05-11T03:07:48.400Z,79.98
2018-05-11T03:10:15.937Z,80.19
2018-05-11T03:12:43.487Z,80.36
2018-05-11T03:15:11.087Z,80.26
2018-05-11T03:17:38.599Z,80.01
2018-05-11T03:20:06.165Z,80.13
2018-05-11T03:22:33.668Z,79.84
2018-05-11T03:25:01.344Z,79.82
2018-05-11T03:27:30.098Z,80.48
2018-05-11T03:29:57.649Z,80.53
2018-05-11T03:32:25.180Z,80.17
2018-05-11T03:34:52.682Z,79.67
2018-05-11T03:37:20.287Z,80.35
2018-05-11T03:39:47.851Z,80.23
2018-05-11T03:42:15.383Z,80.33
2018-05-11T03:44:42.896Z,80.48
2018-05-11T03:47:10.469Z,79.95
2018-05-11T03:49:38.118Z,80.37
2018-05-11T03:52:05.658Z,80.10
2018-05-11T03:54:33.439Z,80.28
2018-05-11T03:57:00.980Z,80.76
2018-05-11T03:59:28.493Z,80.67
2018-05-11T04:02:07.945Z,80.74
2018-05-11T04:04:47.483Z,80.80
2018-05-11T04:07:26.760Z,80.70
2018-05-11T04:09:54.295Z,80.64
2018-05-11T04:12:21.956Z,80.44
2018-05-11T04:14:49.492Z,80.35
2018-05-11T04:17:17.225Z,79.89
2018-05-11T04:19:44.802Z,80.30
2018-05-11T04:22:12.324Z,79.59
2018-05-11T04:24:39.918Z,80.09
2018-05-11T04:27:07.460Z,80.16
2018-05-11T04:29:35.009Z,80.01
2018-05-11T04:32:03.261Z,80.68
2018-05-11T04:34:30.796Z,80.72
2018-05-11T04:36:58.357Z,80.10
2018-05-11T04:39:25.875Z,80.27
2018-05-11T04:41:53.473Z,79.92
2018-05-11T04:44:21.006Z,80.29
2018-05-11T04:46:48.567Z,80.76
2018-05-11T04:49:16.269Z,80.46
2018-05-11T04:51:43.806Z,80.14
2018-05-11T04:54:11.339Z,79.44
2018-05-11T04:56:38.861Z,79.43
2018-05-11T04:59:06.383Z,78.91
2018-05-11T05:01:34.010Z,78.55
2018-05-11T05:04:01.651Z,79.25
2018-05-11T05:06:29.923Z,79.47
2018-05-11T05:08:57.446Z,79.35
2018-05-11T05:11:24.967Z,78.62
2018-05-11T05:13:52.553Z,78.19
2018-05-11T05:16:20.078Z,78.20
2018-05-11T05:18:47.609Z,78.05
2018-05-11T05:21:15.135Z,79.46
2018-05-11T05:23:42.661Z,78.86
2018-05-11T05:26:10.297Z,79.02
2018-05-11T05:28:37.901Z,79.00
2018-05-11T05:31:05.499Z,79.05
2018-05-11T05:33:33.130Z,78.66
2018-05-11T05:36:00.722Z,78.09
2018-05-11T05:38:28.360Z,78.38
2018-05-11T05:40:55.873Z,78.17
2018-05-11T05:43:26.032Z,77.76
2018-05-11T05:45:55.550Z,78.24
2018-05-11T05:48:23.068Z,78.23
2018-05-11T05:50:50.593Z,78.32
2018-05-11T05:53:18.177Z,77.62
2018-05-11T05:55:45.728Z,77.20
2018-05-11T05:58:13.336Z,76.92
2018-05-11T06:00:41.054Z,77.80
2018-05-11T06:03:08.705Z,78.00
2018-05-11T06:05:36.370Z,77.74
2018-05-11T06:08:03.917Z,76.48
2018-05-11T06:10:31.495Z,77.79
2018-05-11T06:12:59.648Z,77.16
2018-05-11T06:15:27.200Z,77.49
2018-05-11T06:17:55.513Z,77.16
2018-05-11T06:20:23.083Z,77.08
2018-05-11T06:22:52.418Z,77.29
2018-05-11T06:25:20.061Z,76.63
2018-05-11T06:27:47.727Z,77.19
2018-05-11T06:30:15.245Z,76.14
2018-05-11T06:32:42.809Z,75.31
2018-05-11T06:35:10.411Z,75.13
2018-05-11T06:37:37.965Z,75.08
2018-05-11T06:40:05.483Z,74.83
2018-05-11T06:42:32.999Z,74.80
2018-05-11T06:45:03.231Z,74.31
2018-05-11T06:47:32.887Z,73.55
2018-05-11T06:50:00.571Z,73.75
2018-05-11T06:52:28.179Z,74.52
2018-05-11T06:54:55.739Z,74.03
2018-05-11T06:57:24.132Z,73.41
2018-05-11T06:59:51.711Z,71.18
2018-05-11T07:02:19.266Z,69.79
2018-05-11T07:04:46.915Z,69.30
2018-05-11T07:07:14.501Z,70.07
2018-05-11T07:09:43.792Z,70.93
2018-05-11T07:12:11.337Z,70.50
2018-05-11T07:14:40.018Z,70.86
2018-05-11T07:17:07.571Z,70.83
2018-05-11T07:19:35.191Z,70.04
2018-05-11T07:22:02.838Z,70.68
2018-05-11T07:24:30.496Z,70.05
2018-05-11T07:26:58.052Z,69.72
2018-05-11T07:29:26.345Z,69.64
2018-05-11T07:31:54.126Z,69.88
2018-05-11T07:34:21.666Z,70.29
2018-05-11T07:36:49.966Z,71.31
2018-05-11T07:39:17.484Z,70.91
2018-05-11T07:41:45.175Z,70.46
2018-05-11T07:44:12.853Z,69.73
2018-05-11T07:46:40.519Z,69.71
2018-05-11T07:49:08.127Z,69.49
2018-05-11T07:51:36.465Z,71.26
2018-05-11T07:54:04.032Z,69.90
2018-05-11T07:56:31.564Z,69.55
2018-05-11T07:58:59.149Z,70.42
2018-05-11T08:01:26.693Z,69.25
2018-05-11T08:03:54.273Z,69.19
2018-05-11T08:06:23.454Z,69.75
2018-05-11T08:08:51.019Z,68.76
2018-05-11T08:11:18.561Z,69.88
2018-05-11T08:13:48.717Z,69.28
2018-05-11T08:16:16.251Z,67.97
2018-05-11T08:18:43.817Z,68.58
2018-05-11T08:21:11.357Z,68.98
2018-05-11T08:23:38.921Z,67.74
2018-05-11T08:26:06.507Z,67.19
2018-05-11T08:28:34.073Z,68.13
2018-05-11T08:31:01.615Z,68.75
2018-05-11T08:33:31.804Z,66.91
2018-05-11T08:35:59.450Z,67.21
2018-05-11T08:38:27.040Z,67.50
2018-05-11T08:40:56.317Z,67.73
2018-05-11T08:43:23.860Z,66.01
2018-05-11T08:45:51.382Z,66.09
2018-05-11T08:48:19.024Z,65.84
2018-05-11T08:50:48.481Z,66.42
2018-05-11T08:53:16.075Z,65.15
2018-05-11T08:55:43.864Z,67.79
2018-05-11T08:58:11.531Z,67.14
2018-05-11T09:00:39.779Z,66.81
2018-05-11T09:03:07.437Z,67.60
2018-05-11T09:05:34.907Z,67.93
2018-05-11T09:08:02.585Z,67.01
2018-05-11T09:10:30.133Z,66.43
2018-05-11T09:12:57.697Z,67.43
2018-05-11T09:15:25.219Z,65.89
2018-05-11T09:17:52.782Z,66.22
2018-05-11T09:20:20.389Z,65.62
2018-05-11T09:22:47.907Z,64.30
2018-05-11T09:25:15.562Z,63.97
2018-05-11T09:27:43.911Z,64.48
2018-05-11T09:30:11.509Z,64.15
2018-05-11T09:32:39.763Z,64.52
2018-05-11T09:35:07.405Z,63.97
2018-05-11T09:37:34.943Z,64.02
2018-05-11T09:40:02.545Z,64.36
2018-05-11T09:42:32.387Z,64.31
2018-05-11T09:44:59.907Z,63.67
2018-05-11T09:47:27.507Z,65.35
2018-05-11T09:49:55.159Z,65.05
2018-05-11T09:52:22.721Z,64.20
2018-05-11T09:54:50.347Z,64.49
2018-05-11T09:57:17.975Z,63.78
2018-05-11T09:59:45.517Z,64.20
2018-05-11T10:02:13.091Z,65.62
2018-05-11T10:04:40.637Z,65.36
2018-05-11T10:07:08.227Z,66.02
2018-05-11T10:09:35.725Z,65.60
2018-05-11T10:12:03.284Z,63.64
2018-05-11T10:14:33.209Z,62.62
2018-05-11T10:17:00.757Z,62.31
2018-05-11T10:19:28.334Z,62.95
2018-05-11T10:21:57.617Z,62.52
2018-05-11T10:24:25.219Z,62.34
2018-05-11T10:26:52.753Z,62.49
2018-05-11T10:29:20.316Z,62.66
2018-05-11T10:31:47.875Z,62.59
2018-05-11T10:34:15.494Z,62.78
2018-05-11T10:36:43.012Z,61.90
2018-05-11T10:39:10.648Z,62.48
2018-05-11T10:41:38.206Z,62.29
2018-05-11T10:44:05.754Z,62.25
2018-05-11T10:46:33.352Z,62.07
2018-05-11T10:49:01.009Z,62.81
2018-05-11T10:51:28.549Z,61.92
2018-05-11T10:53:56.102Z,62.18
2018-05-11T10:56:23.645Z,62.11
2018-05-11T10:58:51.185Z,62.89
2018-05-11T11:01:18.739Z,62.91
2018-05-11T11:03:46.291Z,61.66
2018-05-11T11:06:13.863Z,62.89
2018-05-11T11:08:41.433Z,63.26
2018-05-11T11:11:08.956Z,65.98
2018-05-11T11:23:21.585Z,66.50
2018-05-11T11:25:49.213Z,65.20
2018-05-11T11:28:16.757Z,64.84
2018-05-11T11:30:44.345Z,63.21
2018-05-11T11:33:13.858Z,62.09
2018-05-11T11:35:41.433Z,62.48
2018-05-11T11:38:09.029Z,63.31
2018-05-11T11:40:36.679Z,64.04
2018-05-11T11:43:04.215Z,64.83
2018-05-11T11:45:33.027Z,61.00
2018-05-11T11:48:00.701Z,62.38
2018-05-11T11:50:28.250Z,61.80
2018-05-11T11:52:55.935Z,63.04
2018-05-11T11:58:08.051Z,61.37
2018-05-11T12:00:35.525Z,61.03
2018-05-11T12:03:03.015Z,61.86
2018-05-11T12:05:30.486Z,61.04
2018-05-11T12:07:57.959Z,60.56
2018-05-11T12:10:25.488Z,64.22
2018-05-11T12:12:52.967Z,61.40
2018-05-11T12:15:20.481Z,62.12
2018-05-11T12:17:47.996Z,61.82
2018-05-11T12:20:15.496Z,60.84
2018-05-11T12:22:42.987Z,62.38
2018-05-11T12:25:10.501Z,59.53
2018-05-11T12:27:37.984Z,60.40
2018-05-11T12:30:05.488Z,60.06
2018-05-11T12:32:32.997Z,60.77
2018-05-11T12:35:00.503Z,60.08
2018-05-11T12:37:28.001Z,60.73
2018-05-11T12:39:55.489Z,59.62
2018-05-11T12:42:22.988Z,59.29
2018-05-11T12:44:50.515Z,59.78
2018-05-11T12:47:18.054Z,60.11
2018-05-11T12:49:45.596Z,59.13
2018-05-11T12:52:13.057Z,59.14
2018-05-11T12:54:40.568Z,58.09
2018-05-11T12:57:08.029Z,57.28
2018-05-11T12:59:35.513Z,57.13
2018-05-11T13:02:03.010Z,57.58
2018-05-11T13:04:30.501Z,56.15
2018-05-11T13:06:58.004Z,56.00
2018-05-11T13:09:25.513Z,55.80
2018-05-11T13:11:53.039Z,55.66
2018-05-11T13:14:20.521Z,56.27
2018-05-11T13:16:48.014Z,53.96
2018-05-11T13:19:15.536Z,53.77
2018-05-11T13:21:43.016Z,53.59
2018-05-11T13:24:10.584Z,54.49
2018-05-11T13:26:38.102Z,53.00
2018-05-11T13:29:05.578Z,52.80
2018-05-11T13:31:33.071Z,53.57
2018-05-11T13:34:00.552Z,52.38
2018-05-11T13:36:28.066Z,52.86
2018-05-11T13:38:55.564Z,52.44
2018-05-11T13:41:23.036Z,51.97
2018-05-11T13:43:50.722Z,51.51
2018-05-11T13:46:18.198Z,51.19
2018-05-11T13:48:45.699Z,51.50
2018-05-11T13:51:13.173Z,51.08
2018-05-11T13:53:40.711Z,51.24
2018-05-11T13:56:08.343Z,50.38
2018-05-11T13:58:35.783Z,49.67
2018-05-11T14:01:03.254Z,49.17
2018-05-11T14:03:30.838Z,49.95
2018-05-11T14:05:58.278Z,47.69
2018-05-11T14:08:25.760Z,48.77
2018-05-11T14:10:53.250Z,48.05
2018-05-11T14:13:20.744Z,44.84
2018-05-11T14:15:48.245Z,45.66
2018-05-11T14:18:15.716Z,44.59
2018-05-11T14:20:43.210Z,43.89
2018-05-11T14:23:10.674Z,43.56
2018-05-11T14:25:38.170Z,42.40
2018-05-11T14:28:05.899Z,41.04
2018-05-11T14:30:33.646Z,40.34
2018-05-11T14:33:01.130Z,40.37
2018-05-11T14:35:28.773Z,41.16
2018-05-11T14:37:56.274Z,41.69
2018-05-11T14:40:23.785Z,43.42
2018-05-11T14:42:51.506Z,42.39
2018-05-11T14:45:18.976Z,41.69
2018-05-11T14:47:46.538Z,41.59
2018-05-11T14:50:14.037Z,40.45
2018-05-11T14:52:41.531Z,40.38
2018-05-11T14:55:09.004Z,39.12
2018-05-11T14:57:36.500Z,40.50
2018-05-11T15:00:03.993Z,41.43
2018-05-11T15:02:31.721Z,41.00
2018-05-11T15:04:59.220Z,41.22
2018-05-11T15:07:26.695Z,40.94
2018-05-11T15:09:54.208Z,41.51
2018-05-11T15:12:21.699Z,39.32
2018-05-11T15:14:49.207Z,40.55
2018-05-11T15:17:17.003Z,39.34
2018-05-11T15:19:44.512Z,40.23
2018-05-11T15:22:11.987Z,40.39
2018-05-11T15:24:39.450Z,39.95
2018-05-11T15:27:07.245Z,39.49
2018-05-11T15:29:34.714Z,38.54
2018-05-11T15:32:02.226Z,39.25
2018-05-11T15:34:29.955Z,39.32
2018-05-11T15:36:57.425Z,38.76
2018-05-11T15:39:24.929Z,38.48
2018-05-11T15:41:52.382Z,38.80
2018-05-11T15:44:19.913Z,40.12
2018-05-11T15:46:47.463Z,40.24
2018-05-11T15:49:14.936Z,38.58
2018-05-11T15:51:42.417Z,38.56
2018-05-11T15:54:09.908Z,38.54
2018-05-11T15:56:37.390Z,38.81
2018-05-11T15:59:04.951Z,39.04
2018-05-11T16:01:32.353Z,40.40
2018-05-11T16:03:59.866Z,39.44
2018-05-11T16:06:27.349Z,39.74
2018-05-11T16:08:54.816Z,39.90
2018-05-11T16:11:22.317Z,41.00
2018-05-11T16:13:49.780Z,41.14
2018-05-11T16:16:17.249Z,42.08
2018-05-11T16:18:44.737Z,43.38
2018-05-11T16:21:12.209Z,43.40
2018-05-11T16:23:39.704Z,44.42
2018-05-11T16:26:07.190Z,45.19
2018-05-11T16:28:34.674Z,45.57
2018-05-11T16:31:02.135Z,46.54
2018-05-11T16:33:29.621Z,47.24
2018-05-11T16:35:57.144Z,47.19
2018-05-11T16:38:24.605Z,47.62
2018-05-11T16:40:52.104Z,47.70
2018-05-11T16:43:19.604Z,48.36
2018-05-11T16:45:47.078Z,48.57
2018-05-11T16:48:14.550Z,48.86
2018-05-11T16:50:42.062Z,49.91
2018-05-11T16:53:09.563Z,49.52
2018-05-11T16:55:37.041Z,49.80
2018-05-11T16:58:04.535Z,49.42
2018-05-11T17:00:32.014Z,49.68
2018-05-11T17:02:59.536Z,50.02
2018-05-11T17:05:26.986Z,50.32
2018-05-11T17:07:54.479Z,50.44
2018-05-11T17:10:21.952Z,50.62
2018-05-11T17:12:49.414Z,50.66
2018-05-11T17:15:16.906Z,51.06
2018-05-11T17:17:44.397Z,50.80
2018-05-11T17:20:11.882Z,50.94
2018-05-11T17:22:39.449Z,51.42
2018-05-11T17:25:06.900Z,51.71
2018-05-11T17:27:34.376Z,51.86
2018-05-11T17:30:01.916Z,52.09
2018-05-11T17:32:29.361Z,52.39
2018-05-11T17:34:56.877Z,53.02
2018-05-11T17:37:24.470Z,52.85
2018-05-11T17:39:51.948Z,53.10
2018-05-11T17:42:19.449Z,53.40
2018-05-11T17:44:46.923Z,53.65
2018-05-11T17:47:14.417Z,53.92
2018-05-11T17:49:41.897Z,53.98
2018-05-11T17:52:09.393Z,53.94
2018-05-11T17:54:36.864Z,54.01
2018-05-11T17:57:04.465Z,54.32
2018-05-11T17:59:32.191Z,54.47
2018-05-11T18:01:59.655Z,54.67
2018-05-11T18:04:27.159Z,54.58
2018-05-11T18:06:54.621Z,54.88
2018-05-11T18:09:22.098Z,55.11
2018-05-11T18:11:49.569Z,55.12
2018-05-11T18:14:17.058Z,55.41
2018-05-11T18:16:44.518Z,55.63
2018-05-11T18:19:12.025Z,55.79
2018-05-11T18:21:40.941Z,55.86
2018-05-11T18:24:08.402Z,56.63
2018-05-11T18:26:36.148Z,57.70
2018-05-11T18:29:03.843Z,57.91
2018-05-11T18:31:31.355Z,58.14
2018-05-11T18:33:58.985Z,58.77
2018-05-11T18:36:26.499Z,58.09
2018-05-11T18:38:53.984Z,59.01
2018-05-11T18:41:21.872Z,58.93
2018-05-11T18:43:49.354Z,58.87
2018-05-11T18:46:17.106Z,59.08
2018-05-11T18:48:44.754Z,60.01
2018-05-11T18:51:12.229Z,64.10
2018-05-11T18:53:40.178Z,66.73
2018-05-11T18:56:07.552Z,68.18
2018-05-11T18:58:35.046Z,67.64
2018-05-11T19:01:02.575Z,68.28
2018-05-11T19:03:30.083Z,67.63
2018-05-11T19:05:57.568Z,67.84
2018-05-11T19:08:25.065Z,67.34
2018-05-11T19:10:52.781Z,68.68
2018-05-11T19:13:20.505Z,69.58
2018-05-11T19:18:22.006Z,68.84
2018-05-11T19:20:49.520Z,69.00
2018-05-11T19:23:17.021Z,70.80
2018-05-11T19:25:44.523Z,70.67
2018-05-11T19:28:12.018Z,71.82
2018-05-11T19:30:39.489Z,72.57
2018-05-11T19:33:07.008Z,71.07
2018-05-11T19:35:34.499Z,71.36
2018-05-11T19:38:02.012Z,71.06
2018-05-11T19:40:29.493Z,71.22
2018-05-11T19:42:57.017Z,71.07
2018-05-11T19:45:24.545Z,71.75
2018-05-11T19:47:52.081Z,72.06
2018-05-11T19:50:19.643Z,72.59
2018-05-11T19:52:47.086Z,73.34
2018-05-11T19:55:14.601Z,73.55
2018-05-11T19:57:42.109Z,72.85
2018-05-11T20:00:09.669Z,72.64
2018-05-11T20:02:37.150Z,72.70
2018-05-11T20:05:04.688Z,72.44
2018-05-11T20:07:32.175Z,72.32
2018-05-11T20:09:59.772Z,72.56
2018-05-11T20:12:27.210Z,72.21
2018-05-11T20:14:54.692Z,72.65
2018-05-11T20:17:22.197Z,72.54
2018-05-11T20:19:49.675Z,73.29
2018-05-11T20:22:17.174Z,74.25
2018-05-11T20:24:44.671Z,75.24
2018-05-11T20:27:12.172Z,73.88
2018-05-11T20:29:39.680Z,73.74
2018-05-11T20:32:07.189Z,73.66
2018-05-11T20:34:34.673Z,73.02
2018-05-11T20:37:02.155Z,73.62
2018-05-11T20:39:29.641Z,74.01
2018-05-11T20:41:57.118Z,74.21
2018-05-11T20:44:24.687Z,74.87
2018-05-11T20:46:52.167Z,75.05
2018-05-11T20:49:19.682Z,76.21
2018-05-11T20:51:47.423Z,76.63
2018-05-11T20:54:15.084Z,77.26
2018-05-11T20:56:42.758Z,76.50
2018-05-11T20:59:10.563Z,75.94
2018-05-11T21:01:38.289Z,75.67
2018-05-11T21:04:05.759Z,75.53
2018-05-11T21:06:33.274Z,75.06
2018-05-11T21:09:01.050Z,74.80
2018-05-11T21:11:28.665Z,75.42
2018-05-11T21:13:56.614Z,75.22
2018-05-11T21:16:24.092Z,76.04
2018-05-11T21:18:51.601Z,76.67
2018-05-11T21:21:19.099Z,76.80
2018-05-11T21:23:46.969Z,76.74
2018-05-11T21:26:14.446Z,77.86
2018-05-11T21:28:42.021Z,77.57
2018-05-11T21:31:09.547Z,77.84
2018-05-11T21:33:37.107Z,77.13
2018-05-11T21:36:04.646Z,76.65
2018-05-11T21:38:32.239Z,77.22
2018-05-11T21:41:00.122Z,76.83
2018-05-11T21:43:27.793Z,76.62
2018-05-11T21:45:55.284Z,76.96
2018-05-11T21:48:23.054Z,77.91
2018-05-11T21:50:50.873Z,77.83
2018-05-11T21:53:18.611Z,77.93
2018-05-11T21:55:46.091Z,77.91
2018-05-11T21:58:13.604Z,77.85
2018-05-11T22:00:41.304Z,77.94
2018-05-11T22:03:08.793Z,77.96
2018-05-11T22:05:36.257Z,78.92
2018-05-11T22:08:03.741Z,78.69
2018-05-11T22:10:31.250Z,79.44
2018-05-11T22:12:58.976Z,79.69
2018-05-11T22:15:26.493Z,80.10
2018-05-11T22:17:54.216Z,80.12
2018-05-11T22:20:21.773Z,80.06
2018-05-11T22:22:49.275Z,80.14
2018-05-11T22:25:17.054Z,79.93
2018-05-11T22:27:44.630Z,79.79
2018-05-11T22:30:12.126Z,80.16
2018-05-11T22:32:39.591Z,80.32
2018-05-11T22:35:08.367Z,80.69
2018-05-11T22:37:35.906Z,81.00
2018-05-11T22:40:03.412Z,81.00
2018-05-11T22:42:30.887Z,81.19
2018-05-11T22:44:58.374Z,80.87
2018-05-11T22:47:25.881Z,80.64
2018-05-11T22:49:53.383Z,80.12
2018-05-11T22:52:20.871Z,80.93
2018-05-11T22:54:48.358Z,80.26
2018-05-11T22:57:15.845Z,80.49
2018-05-11T22:59:43.338Z,80.98
2018-05-11T23:02:10.832Z,80.70
2018-05-11T23:04:38.396Z,80.37
2018-05-11T23:07:05.959Z,80.79
2018-05-11T23:09:33.424Z,80.76
2018-05-11T23:12:01.128Z,81.43
2018-05-11T23:14:28.625Z,81.78
2018-05-11T23:16:56.117Z,82.16
2018-05-11T23:19:23.653Z,82.47
2018-05-11T23:21:51.136Z,82.30
2018-05-11T23:24:18.624Z,82.78
2018-05-11T23:26:46.110Z,82.48
2018-05-11T23:29:13.574Z,82.75
2018-05-11T23:31:41.129Z,83.21
2018-05-11T23:34:08.608Z,83.32
2018-05-11T23:36:36.119Z,83.01
2018-05-11T23:39:03.605Z,82.88
2018-05-11T23:41:31.083Z,82.71
2018-05-11T23:43:58.544Z,82.54
2018-05-11T23:46:26.024Z,82.36
2018-05-11T23:48:53.502Z,82.15
2018-05-11T23:51:20.989Z,82.26
2018-05-11T23:53:48.449Z,82.13
2018-05-11T23:56:15.922Z,82.42
2018-05-11T23:58:43.417Z,82.58
